»·PEaware :: N733UC KSBD-KEMT

N733UC :: KSBD-KEMT

FLIGHT INFORMATION

Flight Status: Arrived
Operator: Privately registered:
United States
More flights under this callsign
Pilot: Bill B. (19180)
Aircraft: CESSNA 172 SKYHAWK
(C172)
More flights by this aircraft type
Origin: KSBD San Bernardino Intl
United States
Destination: KEMT El Monte
United States
More flights between these airports :: More routes between these airports
Route: POM
File this flight plan on PilotEdge
Remarks: Cat 7
Altitude:
(Current/Filed)
4,500ft
Speed:
(Current/Filed)
110kts
Departed: 15-May-18 05:29 PM
Arrived: 15-May-18 05:58 PM
Distance/Time
Traveled:
40nm/0:29
Distance/Time
To Go:
Arrived

Flight Plot

Page will automatically refresh every two minutes.

Flight plan parsing failed; only flown route is shown


Map Options




Map Legend


Flown Route
Filed Route
Departure Airport
Arrival Airport
Navaid (VOR, NDB)
Fix

Horizontal Profiles

Position Reports

Time Latitude Longitude Heading Altitude Ground
Speed
15-May-18 17:06 34.101482 -117.225542 267 1160ft 0kts
15-May-18 17:07 34.101482 -117.225542 267 1160ft 0kts
15-May-18 17:08 34.101482 -117.225542 267 1160ft 0kts
15-May-18 17:09 34.101482 -117.225542 267 1160ft 0kts
15-May-18 17:10 34.101482 -117.225542 267 1160ft 0kts
15-May-18 17:11 34.101482 -117.225542 267 1160ft 0kts
15-May-18 17:12 34.101482 -117.225542 267 1160ft 0kts
15-May-18 17:13 34.101482 -117.225542 267 1160ft 0kts
15-May-18 17:14 34.101482 -117.225542 267 1160ft 0kts
15-May-18 17:15 34.101482 -117.225542 267 1160ft 0kts
15-May-18 17:16 34.101482 -117.225542 267 1160ft 0kts
15-May-18 17:17 34.101482 -117.225545 267 1160ft 0kts
15-May-18 17:18 34.101482 -117.225548 267 1160ft 0kts
15-May-18 17:19 34.101482 -117.225551 267 1160ft 0kts
15-May-18 17:20 34.101481 -117.225554 267 1160ft 0kts
15-May-18 17:21 34.101481 -117.225557 267 1160ft 0kts
15-May-18 17:22 34.101481 -117.225573 265 1160ft 1kts
15-May-18 17:23 34.100673 -117.223274 166 1160ft 13kts
15-May-18 17:24 34.101185 -117.219456 262 1160ft 0kts
15-May-18 17:25 34.101185 -117.219462 262 1160ft 0kts
15-May-18 17:26 34.101137 -117.219699 252 1160ft 7kts
15-May-18 17:27 34.100439 -117.219955 163 1160ft 0kts
15-May-18 17:28 34.100432 -117.219952 163 1160ft 0kts
15-May-18 17:29 34.098896 -117.222893 250 1160ft 52kts
15-May-18 17:30 34.092557 -117.246624 251 1863ft 75kts
15-May-18 17:31 34.089825 -117.275464 275 2386ft 102kts
15-May-18 17:32 34.084708 -117.310552 254 2679ft 96kts
15-May-18 17:33 34.081819 -117.333854 244 2671ft 100kts
15-May-18 17:34 34.069850 -117.363678 229 3059ft 86kts
15-May-18 17:35 34.061466 -117.346589 19 3552ft 110kts
15-May-18 17:36 34.072317 -117.365945 253 4038ft 87kts
15-May-18 17:37 34.074164 -117.395572 274 4530ft 101kts
15-May-18 17:38 34.074206 -117.432028 266 4591ft 113kts
15-May-18 17:39 34.074181 -117.471438 267 4462ft 116kts
15-May-18 17:40 34.075207 -117.508612 267 4489ft 108kts
15-May-18 17:41 34.076181 -117.543854 266 4443ft 101kts
15-May-18 17:42 34.076237 -117.578806 263 4534ft 106kts
15-May-18 17:43 34.077071 -117.613491 269 4515ft 101kts
15-May-18 17:44 34.077688 -117.648248 265 4630ft 104kts
15-May-18 17:45 34.077123 -117.682989 271 4605ft 103kts
15-May-18 17:46 34.077537 -117.718766 269 4619ft 110kts
15-May-18 17:47 34.078084 -117.756945 265 4507ft 113kts
15-May-18 17:48 34.079432 -117.794404 270 4508ft 111kts
15-May-18 17:49 34.080878 -117.831921 271 4239ft 114kts
15-May-18 17:50 34.081941 -117.869406 272 3847ft 112kts
15-May-18 17:51 34.083669 -117.905952 268 3024ft 105kts
15-May-18 17:52 34.086173 -117.940530 283 2182ft 100kts
15-May-18 17:53 34.094685 -117.968229 294 1673ft 73kts
15-May-18 17:54 34.104256 -117.987481 294 1359ft 61kts
15-May-18 17:55 34.109199 -118.006580 278 1269ft 60kts
15-May-18 17:56 34.102520 -118.024220 218 863ft 62kts
15-May-18 17:57 34.087695 -118.033838 210 304ft 49kts
15-May-18 17:58 34.081832 -118.037222 205 299ft 13kts
15-May-18 17:59 34.080935 -118.037103 64 299ft 0kts
15-May-18 18:00 34.081175 -118.036864 25 299ft 8kts
15-May-18 18:01 34.082061 -118.035279 292 299ft 0kts

Navigation Log

Ident Type
Flight plan parsing failed, navigation log unavailable